Time;durP1;ratioP1;P1;durP2;ratioP2;P2;SDS_P1;SDS_P2;PMS_P1;PMS_P2;Temp;Humidity;BMP_temperature;BMP_pressure;BME280_temperature;BME280_humidity;BME280_pressure;Samples;Min_cycle;Max_cycle;Signal;HPM_P1;HPM_P2
2023/12/05 00:00:06;;;;;;;0.00;0.00;;;2.70;99.90;;;;;;5113509;28;20218;-64
2023/12/05 00:02:31;;;;;;;0.00;0.00;;;2.70;99.90;;;;;;5112833;28;20648;-65
2023/12/05 00:04:57;;;;;;;0.00;0.00;;;2.70;99.90;;;;;;5114121;28;20187;-65
2023/12/05 00:07:23;;;;;;;0.00;0.00;;;2.80;99.90;;;;;;5112141;28;20171;-65
2023/12/05 00:09:49;;;;;;;0.00;0.00;;;2.80;99.90;;;;;;5093585;28;20204;-64
2023/12/05 00:12:15;;;;;;;0.00;0.00;;;2.80;99.90;;;;;;5098594;28;20228;-65
2023/12/05 00:14:40;;;;;;;0.13;0.13;;;2.90;99.90;;;;;;5103615;28;20629;-66
2023/12/05 00:17:06;;;;;;;0.00;0.00;;;2.90;99.90;;;;;;5100850;28;20203;-65
2023/12/05 00:19:32;;;;;;;0.00;0.00;;;2.90;99.90;;;;;;5108278;28;20183;-65
2023/12/05 00:21:57;;;;;;;0.00;0.00;;;3.00;99.90;;;;;;5102308;28;20186;-64
2023/12/05 00:24:23;;;;;;;0.35;0.35;;;3.10;99.90;;;;;;5113324;28;20184;-64
2023/12/05 00:26:48;;;;;;;0.00;0.00;;;3.10;99.90;;;;;;5113559;28;20172;-64
2023/12/05 00:29:14;;;;;;;0.00;0.00;;;3.20;99.90;;;;;;5112844;28;20207;-64
2023/12/05 00:31:40;;;;;;;0.00;0.00;;;3.10;99.90;;;;;;5096799;28;20255;-65
2023/12/05 00:34:06;;;;;;;0.00;0.00;;;3.10;99.90;;;;;;5108594;28;20180;-65
2023/12/05 00:36:31;;;;;;;0.00;0.00;;;3.10;99.90;;;;;;5100734;28;20219;-65
2023/12/05 00:38:57;;;;;;;0.00;0.00;;;3.10;99.90;;;;;;5100159;28;20191;-65
2023/12/05 00:41:24;;;;;;;0.00;0.00;;;3.20;99.90;;;;;;5106476;28;20677;-66
2023/12/05 00:43:51;;;;;;;0.00;0.00;;;3.20;99.90;;;;;;5096407;28;20171;-65
2023/12/05 00:46:16;;;;;;;0.00;0.00;;;3.30;99.90;;;;;;5097007;28;20175;-64
2023/12/05 00:48:42;;;;;;;0.10;0.10;;;3.30;99.90;;;;;;5104437;28;20583;-64
2023/12/05 00:51:08;;;;;;;0.00;0.00;;;3.40;99.90;;;;;;5103348;28;20179;-64
2023/12/05 00:53:34;;;;;;;0.00;0.00;;;3.40;99.90;;;;;;5109538;28;20706;-65
2023/12/05 00:55:59;;;;;;;0.00;0.00;;;3.40;99.90;;;;;;5112399;28;20274;-65
2023/12/05 00:58:25;;;;;;;0.00;0.00;;;3.50;99.90;;;;;;5112775;28;20179;-65
2023/12/05 01:00:50;;;;;;;0.00;0.00;;;3.50;99.90;;;;;;5111540;28;20645;-65
2023/12/05 01:03:16;;;;;;;0.00;0.00;;;3.50;99.90;;;;;;5112524;28;20183;-65
2023/12/05 01:05:42;;;;;;;0.00;0.00;;;3.50;99.90;;;;;;5112185;28;20209;-64
2023/12/05 01:08:07;;;;;;;0.00;0.00;;;3.60;99.90;;;;;;5112149;28;20184;-65
2023/12/05 01:10:33;;;;;;;0.00;0.00;;;3.60;99.90;;;;;;5112559;27;20243;-65
2023/12/05 01:12:58;;;;;;;0.00;0.00;;;3.60;99.90;;;;;;5109401;28;20188;-65
2023/12/05 01:15:24;;;;;;;0.10;0.10;;;3.60;99.90;;;;;;5092251;28;20640;-64
2023/12/05 01:17:50;;;;;;;0.00;0.00;;;3.60;99.90;;;;;;5109263;28;20167;-66
2023/12/05 01:20:16;;;;;;;0.00;0.00;;;3.60;99.90;;;;;;5095838;28;20179;-65
2023/12/05 01:22:41;;;;;;;0.00;0.00;;;3.70;99.90;;;;;;5103121;28;20172;-65
2023/12/05 01:25:07;;;;;;;0.00;0.00;;;3.70;99.90;;;;;;5095272;28;20274;-65
2023/12/05 01:27:33;;;;;;;0.00;0.00;;;3.70;99.90;;;;;;5097404;28;20176;-65
2023/12/05 01:29:59;;;;;;;0.00;0.00;;;3.80;99.90;;;;;;5107899;28;20678;-65
2023/12/05 01:32:24;;;;;;;0.00;0.00;;;3.80;99.90;;;;;;5106707;28;20214;-65
2023/12/05 01:34:50;;;;;;;0.00;0.00;;;3.80;99.90;;;;;;5093546;28;20172;-65
2023/12/05 01:37:15;;;;;;;0.00;0.00;;;3.80;99.90;;;;;;5104068;28;20220;-65
2023/12/05 01:39:41;;;;;;;0.00;0.00;;;3.80;99.90;;;;;;5100920;28;20247;-65
2023/12/05 01:42:06;;;;;;;0.00;0.00;;;3.80;99.90;;;;;;5094900;28;20606;-66
2023/12/05 01:44:32;;;;;;;0.00;0.00;;;3.90;99.90;;;;;;5101668;28;20215;-65
2023/12/05 01:46:59;;;;;;;0.00;0.00;;;3.90;99.90;;;;;;5100143;28;20179;-66
2023/12/05 01:49:25;;;;;;;0.00;0.00;;;3.90;99.90;;;;;;5100445;28;20219;-65
2023/12/05 01:51:52;;;;;;;0.00;0.00;;;3.90;99.90;;;;;;5094138;28;20176;-66
2023/12/05 01:54:18;;;;;;;0.57;0.55;;;3.90;99.90;;;;;;5095724;28;20183;-65
2023/12/05 01:56:44;;;;;;;0.00;0.00;;;4.00;99.90;;;;;;5101750;28;20176;-65
2023/12/05 01:59:09;;;;;;;0.38;0.38;;;4.00;99.90;;;;;;5092924;28;20225;-65
2023/12/05 02:01:36;;;;;;;0.00;0.00;;;4.00;99.90;;;;;;5104819;28;20180;-66
2023/12/05 02:04:02;;;;;;;0.00;0.00;;;4.00;99.90;;;;;;5108064;28;20250;-66
2023/12/05 02:06:28;;;;;;;0.00;0.00;;;4.00;99.90;;;;;;5105553;28;20176;-65
2023/12/05 02:08:54;;;;;;;0.00;0.00;;;4.00;99.90;;;;;;5092863;28;20228;-66
2023/12/05 02:11:19;;;;;;;0.00;0.00;;;4.00;99.90;;;;;;5103212;28;20665;-65
2023/12/05 02:13:47;;;;;;;0.40;0.40;;;4.10;99.90;;;;;;5096116;28;20182;-66
2023/12/05 02:16:35;;;;;;;0.10;0.10;;;4.00;99.90;;;;;;5097184;28;20187;-64
2023/12/05 02:19:13;;;;;;;0.00;0.00;;;4.10;99.90;;;;;;5098889;28;20175;-65
2023/12/05 02:21:43;;;;;;;0.00;0.00;;;4.10;99.90;;;;;;5096144;28;20180;-65
2023/12/05 02:24:30;;;;;;;0.00;0.00;;;4.20;99.90;;;;;;5108218;28;20210;-65
2023/12/05 02:27:15;;;;;;;0.00;0.00;;;4.20;99.90;;;;;;5108698;28;20195;-64
2023/12/05 02:29:51;;;;;;;0.00;0.00;;;4.20;99.90;;;;;;5096390;28;20290;-65
2023/12/05 02:32:17;;;;;;;0.00;0.00;;;4.30;99.90;;;;;;5094440;28;20191;-65
2023/12/05 02:34:42;;;;;;;0.00;0.00;;;4.30;99.90;;;;;;5110374;28;20530;-65
2023/12/05 02:37:27;;;;;;;0.00;0.00;;;4.30;99.90;;;;;;5100999;28;20251;-65
2023/12/05 02:40:07;;;;;;;0.00;0.00;;;4.40;99.90;;;;;;5095378;28;20211;-65
2023/12/05 02:42:34;;;;;;;0.00;0.00;;;4.40;99.90;;;;;;5107913;28;20209;-65
2023/12/05 02:45:02;;;;;;;0.00;0.00;;;4.40;99.90;;;;;;5102251;28;20187;-65
2023/12/05 02:47:30;;;;;;;0.00;0.00;;;4.50;99.90;;;;;;5103468;28;20180;-65
2023/12/05 02:49:56;;;;;;;0.00;0.00;;;4.50;99.90;;;;;;5095862;28;20722;-65
2023/12/05 02:52:22;;;;;;;0.00;0.00;;;4.60;99.90;;;;;;5101903;28;20219;-66
2023/12/05 02:54:48;;;;;;;0.00;0.00;;;4.70;99.90;;;;;;5106814;28;20654;-64
2023/12/05 02:57:14;;;;;;;0.00;0.00;;;4.70;99.90;;;;;;5101939;28;20785;-64
2023/12/05 02:59:39;;;;;;;0.00;0.00;;;4.80;99.90;;;;;;5105081;28;20232;-64
2023/12/05 03:02:05;;;;;;;0.00;0.00;;;4.90;99.90;;;;;;5111102;28;20176;-65
2023/12/05 03:04:30;;;;;;;0.00;0.00;;;4.90;99.90;;;;;;5111433;28;20176;-64
2023/12/05 03:06:56;;;;;;;0.00;0.00;;;5.00;99.90;;;;;;5111787;28;20542;-65
2023/12/05 03:09:21;;;;;;;0.00;0.00;;;5.00;99.90;;;;;;5107131;28;20216;-65
2023/12/05 03:11:47;;;;;;;0.00;0.00;;;5.00;99.90;;;;;;5094970;28;20282;-65
2023/12/05 03:14:14;;;;;;;0.00;0.00;;;4.90;99.90;;;;;;5094741;28;20700;-65
2023/12/05 03:16:39;;;;;;;0.00;0.00;;;4.90;99.90;;;;;;5099425;28;20260;-65
2023/12/05 03:19:05;;;;;;;0.00;0.00;;;4.90;99.90;;;;;;5114908;28;20211;-66
2023/12/05 03:21:30;;;;;;;0.00;0.00;;;4.80;99.90;;;;;;5114856;28;20187;-65
2023/12/05 03:23:56;;;;;;;0.00;0.00;;;4.80;99.90;;;;;;5114793;28;20179;-65
2023/12/05 03:26:23;;;;;;;0.00;0.00;;;4.70;99.90;;;;;;5114128;28;20187;-66
2023/12/05 03:28:50;;;;;;;0.00;0.00;;;4.70;99.90;;;;;;5110989;28;20184;-65
2023/12/05 03:31:16;;;;;;;0.00;0.00;;;4.70;99.90;;;;;;5099105;28;20214;-65
2023/12/05 03:33:41;;;;;;;0.00;0.00;;;4.70;99.90;;;;;;5099096;28;20207;-66
2023/12/05 03:36:08;;;;;;;0.00;0.00;;;4.60;99.90;;;;;;5109118;28;20266;-65
2023/12/05 03:38:33;;;;;;;0.00;0.00;;;4.60;99.90;;;;;;5096329;28;20180;-66
2023/12/05 03:40:59;;;;;;;0.00;0.00;;;4.60;99.90;;;;;;5094625;28;20184;-66
2023/12/05 03:43:24;;;;;;;0.00;0.00;;;4.60;99.90;;;;;;5103054;28;20185;-66
2023/12/05 03:45:50;;;;;;;0.00;0.00;;;4.50;99.90;;;;;;5102395;28;20197;-65
2023/12/05 03:48:16;;;;;;;0.00;0.00;;;4.50;99.90;;;;;;5094491;28;21145;-66
2023/12/05 03:50:41;;;;;;;0.00;0.00;;;4.40;99.90;;;;;;5095343;28;20559;-65
2023/12/05 03:53:07;;;;;;;0.00;0.00;;;4.40;99.90;;;;;;5098829;28;20225;-65
2023/12/05 03:55:34;;;;;;;0.00;0.00;;;4.40;99.90;;;;;;5103669;28;20171;-66
2023/12/05 03:58:00;;;;;;;0.00;0.00;;;4.30;99.90;;;;;;5113065;28;20199;-66
2023/12/05 04:00:26;;;;;;;0.00;0.00;;;4.30;99.90;;;;;;5105588;28;20631;-66
2023/12/05 04:02:51;;;;;;;0.00;0.00;;;4.30;99.90;;;;;;5105533;28;20202;-66
2023/12/05 04:05:17;;;;;;;0.00;0.00;;;4.20;99.90;;;;;;5093733;28;20168;-66
2023/12/05 04:07:42;;;;;;;0.00;0.00;;;4.20;99.90;;;;;;5095973;28;20176;-66
2023/12/05 04:10:11;;;;;;;0.00;0.00;;;4.20;99.90;;;;;;5105302;28;20219;-66
2023/12/05 04:12:39;;;;;;;0.00;0.00;;;4.10;99.90;;;;;;5097595;28;20540;-66
2023/12/05 04:15:05;;;;;;;0.00;0.00;;;4.10;99.90;;;;;;5107056;28;20249;-66
2023/12/05 04:17:31;;;;;;;0.00;0.00;;;4.10;99.90;;;;;;5093886;28;20176;-66
2023/12/05 04:19:56;;;;;;;0.00;0.00;;;4.10;99.90;;;;;;5093845;28;20241;-67
2023/12/05 04:22:22;;;;;;;0.00;0.00;;;4.10;99.90;;;;;;5093618;28;20176;-66
2023/12/05 04:24:47;;;;;;;0.00;0.00;;;4.20;99.90;;;;;;5094866;28;20191;-67
2023/12/05 04:27:13;;;;;;;0.08;0.08;;;4.20;99.90;;;;;;5103074;28;20211;-67
2023/12/05 04:29:39;;;;;;;0.00;0.00;;;4.30;99.90;;;;;;5094715;28;20290;-66
2023/12/05 04:32:05;;;;;;;0.00;0.00;;;4.30;99.90;;;;;;5106748;28;20211;-66
2023/12/05 04:34:30;;;;;;;0.20;0.20;;;4.40;99.90;;;;;;5109663;28;20207;-68
2023/12/05 04:36:56;;;;;;;0.00;0.00;;;4.40;99.90;;;;;;5110052;28;20230;-67
2023/12/05 04:39:21;;;;;;;0.00;0.00;;;4.50;99.90;;;;;;5093075;28;20242;-67
2023/12/05 04:41:47;;;;;;;0.00;0.00;;;4.60;99.90;;;;;;5101911;28;20218;-69
2023/12/05 04:44:12;;;;;;;0.00;0.00;;;4.60;99.90;;;;;;5099091;28;20186;-65
2023/12/05 04:46:38;;;;;;;0.00;0.00;;;4.70;99.90;;;;;;5102903;28;20172;-65
2023/12/05 04:49:05;;;;;;;0.00;0.00;;;4.70;99.90;;;;;;5097371;28;20676;-66
2023/12/05 04:51:30;;;;;;;0.00;0.00;;;4.80;99.90;;;;;;5107184;28;20184;-67
2023/12/05 04:53:56;;;;;;;0.00;0.00;;;4.80;99.90;;;;;;5098433;28;20194;-68
2023/12/05 04:56:22;;;;;;;0.00;0.00;;;4.80;99.90;;;;;;5092352;28;20180;-67
2023/12/05 04:58:48;;;;;;;0.00;0.00;;;4.80;99.90;;;;;;5093001;28;20191;-66
2023/12/05 05:01:14;;;;;;;0.00;0.00;;;4.80;99.90;;;;;;5091413;28;20906;-67
2023/12/05 05:03:39;;;;;;;0.00;0.00;;;4.80;99.90;;;;;;5096866;28;20183;-68
2023/12/05 05:06:05;;;;;;;0.00;0.00;;;4.80;99.90;;;;;;5104486;28;20184;-64
2023/12/05 05:08:31;;;;;;;0.00;0.00;;;4.80;99.90;;;;;;5103198;28;20229;-65
2023/12/05 05:10:56;;;;;;;0.00;0.00;;;4.80;99.90;;;;;;5105541;28;20309;-65
2023/12/05 05:13:22;;;;;;;0.00;0.00;;;4.80;99.90;;;;;;5094338;28;20662;-65
2023/12/05 05:15:47;;;;;;;0.00;0.00;;;4.80;99.90;;;;;;5092320;28;20188;-65
2023/12/05 05:18:13;;;;;;;0.00;0.00;;;4.80;99.90;;;;;;5092496;28;20188;-66
2023/12/05 05:20:38;;;;;;;0.00;0.00;;;4.90;99.90;;;;;;5093142;28;20176;-66
2023/12/05 05:23:04;;;;;;;0.00;0.00;;;4.90;99.90;;;;;;5092763;28;20194;-65
2023/12/05 05:25:30;;;;;;;0.00;0.00;;;4.90;99.90;;;;;;5108489;28;20861;-65
2023/12/05 05:27:55;;;;;;;0.00;0.00;;;5.00;99.90;;;;;;5107891;28;20255;-65
2023/12/05 05:30:21;;;;;;;0.00;0.00;;;4.90;99.90;;;;;;5092279;28;20607;-65
2023/12/05 05:32:46;;;;;;;0.00;0.00;;;4.90;99.90;;;;;;5095661;28;20176;-66
2023/12/05 05:35:12;;;;;;;0.00;0.00;;;4.90;99.90;;;;;;5092317;28;20278;-65
2023/12/05 05:37:37;;;;;;;0.08;0.08;;;4.90;99.90;;;;;;5108271;28;20705;-65
2023/12/05 05:40:03;;;;;;;0.00;0.00;;;4.90;99.90;;;;;;5092022;28;20271;-65
2023/12/05 05:42:29;;;;;;;0.00;0.00;;;4.90;99.90;;;;;;5101494;28;20176;-65
2023/12/05 05:44:54;;;;;;;0.00;0.00;;;4.90;99.90;;;;;;5098479;28;20494;-65
2023/12/05 05:47:20;;;;;;;0.00;0.00;;;4.90;99.90;;;;;;5093235;28;20172;-65
2023/12/05 05:49:47;;;;;;;0.00;0.00;;;4.80;99.90;;;;;;5107942;28;20203;-65
2023/12/05 05:52:12;;;;;;;0.00;0.00;;;4.80;99.90;;;;;;5098407;28;20647;-65
2023/12/05 05:54:38;;;;;;;0.00;0.00;;;4.80;99.90;;;;;;5101414;28;20187;-65
2023/12/05 05:57:04;;;;;;;0.00;0.00;;;4.80;99.90;;;;;;5104201;28;20191;-65
2023/12/05 05:59:29;;;;;;;0.00;0.00;;;4.80;99.90;;;;;;5094797;28;20184;-65
2023/12/05 06:01:55;;;;;;;0.00;0.00;;;4.80;99.90;;;;;;5108028;28;20168;-66
2023/12/05 06:04:20;;;;;;;0.00;0.00;;;4.80;99.90;;;;;;5098665;28;20191;-66
2023/12/05 06:06:46;;;;;;;0.00;0.00;;;4.80;99.90;;;;;;5100994;28;20172;-66
2023/12/05 06:09:11;;;;;;;0.20;0.13;;;4.80;99.90;;;;;;5099446;28;20273;-66
2023/12/05 06:11:37;;;;;;;0.00;0.00;;;4.80;99.90;;;;;;5108059;28;20630;-66
2023/12/05 06:14:03;;;;;;;0.00;0.00;;;4.80;99.90;;;;;;5095856;28;20608;-66
2023/12/05 06:16:29;;;;;;;0.00;0.00;;;4.80;99.90;;;;;;5103609;28;20186;-65
2023/12/05 06:18:55;;;;;;;0.00;0.00;;;4.80;99.90;;;;;;5101968;28;20267;-65
2023/12/05 06:21:20;;;;;;;0.00;0.00;;;4.90;99.90;;;;;;5095133;28;20262;-65
2023/12/05 06:23:45;;;;;;;0.00;0.00;;;4.90;99.90;;;;;;5107810;28;20266;-66
2023/12/05 06:26:11;;;;;;;0.00;0.00;;;4.90;99.90;;;;;;5096532;28;20182;-65
2023/12/05 06:28:37;;;;;;;0.00;0.00;;;4.90;99.90;;;;;;5102540;28;20186;-66
2023/12/05 06:31:02;;;;;;;0.00;0.00;;;4.90;99.90;;;;;;5092230;28;20247;-66
2023/12/05 06:33:28;;;;;;;0.00;0.00;;;4.90;99.90;;;;;;5107129;28;20250;-66
2023/12/05 06:35:53;;;;;;;0.00;0.00;;;4.80;99.90;;;;;;5094115;28;20712;-66
2023/12/05 06:38:19;;;;;;;0.00;0.00;;;4.70;99.90;;;;;;5106011;28;20209;-66
2023/12/05 06:40:44;;;;;;;0.00;0.00;;;4.70;99.90;;;;;;5090240;28;20184;-66
2023/12/05 06:43:10;;;;;;;0.00;0.00;;;4.70;99.90;;;;;;5106577;28;20206;-66
2023/12/05 06:45:36;;;;;;;0.00;0.00;;;4.60;99.90;;;;;;5099156;28;20223;-66
2023/12/05 06:48:01;;;;;;;0.00;0.00;;;4.60;99.90;;;;;;5111775;28;20588;-66
2023/12/05 06:50:27;;;;;;;0.20;0.20;;;4.50;99.90;;;;;;5100976;28;20219;-66
2023/12/05 06:52:57;;;;;;;0.10;0.10;;;4.50;99.90;;;;;;5113756;28;20187;-66
2023/12/05 06:55:25;;;;;;;0.00;0.00;;;4.50;99.90;;;;;;5099858;28;20266;-66
2023/12/05 06:57:51;;;;;;;0.00;0.00;;;4.50;99.90;;;;;;5111440;28;20228;-64
2023/12/05 07:00:18;;;;;;;0.08;0.08;;;4.50;99.90;;;;;;5099241;28;20266;-65
2023/12/05 07:02:44;;;;;;;0.00;0.00;;;4.50;99.90;;;;;;5106506;28;20176;-65
2023/12/05 07:05:10;;;;;;;0.32;0.32;;;4.60;99.90;;;;;;5106693;28;20227;-65
2023/12/05 07:07:35;;;;;;;0.00;0.00;;;4.60;99.90;;;;;;5099533;28;20176;-66
2023/12/05 07:10:02;;;;;;;0.00;0.00;;;4.60;99.90;;;;;;5102274;28;20220;-66
2023/12/05 07:12:28;;;;;;;0.00;0.00;;;4.60;99.90;;;;;;5108839;28;20190;-66
2023/12/05 07:14:54;;;;;;;0.00;0.00;;;4.60;99.90;;;;;;5103865;28;20168;-66
2023/12/05 07:17:19;;;;;;;0.00;0.00;;;4.60;99.90;;;;;;5101641;28;20184;-65
2023/12/05 07:19:45;;;;;;;0.00;0.00;;;4.70;99.90;;;;;;5110979;28;20549;-66
2023/12/05 07:22:11;;;;;;;0.00;0.00;;;4.70;99.90;;;;;;5098002;28;20182;-66
2023/12/05 07:24:37;;;;;;;0.00;0.00;;;4.70;99.90;;;;;;5107830;28;20214;-64
2023/12/05 07:27:03;;;;;;;0.00;0.00;;;4.80;99.90;;;;;;5104548;28;20211;-65
2023/12/05 07:29:28;;;;;;;0.00;0.00;;;4.80;99.90;;;;;;5100111;28;20218;-66
2023/12/05 07:31:54;;;;;;;0.00;0.00;;;4.80;99.90;;;;;;5099914;28;20176;-66
2023/12/05 07:34:20;;;;;;;0.00;0.00;;;4.90;99.90;;;;;;5092943;28;20533;-66
2023/12/05 07:36:45;;;;;;;0.00;0.00;;;4.90;99.90;;;;;;5097859;28;20212;-66
2023/12/05 07:39:12;;;;;;;0.00;0.00;;;4.90;99.90;;;;;;5094146;28;20256;-66
2023/12/05 07:41:39;;;;;;;0.00;0.00;;;5.00;99.90;;;;;;5094500;28;20176;-66
2023/12/05 07:44:06;;;;;;;0.00;0.00;;;5.00;99.90;;;;;;5094046;28;20184;-65
2023/12/05 07:46:32;;;;;;;0.00;0.00;;;5.00;99.90;;;;;;5094267;28;20168;-65
2023/12/05 07:48:58;;;;;;;0.00;0.00;;;5.00;99.90;;;;;;5093934;28;20651;-66
2023/12/05 07:51:23;;;;;;;0.00;0.00;;;5.10;99.90;;;;;;5094127;28;20273;-66
2023/12/05 07:53:50;;;;;;;0.00;0.00;;;5.10;99.90;;;;;;5092772;28;20175;-67
2023/12/05 07:56:16;;;;;;;0.00;0.00;;;5.10;99.90;;;;;;5093951;28;20172;-67
2023/12/05 07:58:42;;;;;;;0.00;0.00;;;5.10;99.90;;;;;;5093869;28;20277;-66
2023/12/05 08:01:08;;;;;;;0.00;0.00;;;5.20;99.90;;;;;;5093613;28;20174;-66
2023/12/05 08:03:34;;;;;;;0.00;0.00;;;5.20;99.90;;;;;;5093835;28;20172;-66
2023/12/05 08:06:01;;;;;;;0.00;0.00;;;5.30;99.90;;;;;;5093761;28;20169;-66
2023/12/05 08:08:30;;;;;;;0.00;0.00;;;5.30;99.90;;;;;;5093654;28;20202;-65
2023/12/05 08:10:58;;;;;;;0.00;0.00;;;5.30;99.90;;;;;;5093678;28;20297;-65
2023/12/05 08:13:23;;;;;;;0.10;0.10;;;5.40;99.90;;;;;;5093587;28;20180;-65
2023/12/05 08:15:49;;;;;;;0.00;0.00;;;5.40;99.90;;;;;;5093830;28;20632;-66
2023/12/05 08:18:14;;;;;;;0.00;0.00;;;5.40;99.90;;;;;;5093569;28;20169;-66
2023/12/05 08:20:40;;;;;;;0.00;0.00;;;5.50;99.90;;;;;;5093598;28;20218;-67
2023/12/05 08:23:05;;;;;;;0.00;0.00;;;5.50;99.90;;;;;;5093255;28;20203;-65
2023/12/05 08:25:31;;;;;;;0.00;0.00;;;5.50;99.90;;;;;;5094766;28;20593;-66
2023/12/05 08:27:56;;;;;;;0.00;0.00;;;5.50;99.90;;;;;;5093291;28;20176;-66
2023/12/05 08:30:22;;;;;;;0.00;0.00;;;5.60;99.90;;;;;;5098756;28;20704;-66
2023/12/05 08:32:47;;;;;;;0.00;0.00;;;5.60;99.90;;;;;;5113688;28;20291;-66
2023/12/05 08:35:13;;;;;;;0.00;0.00;;;5.60;99.90;;;;;;5113490;28;20650;-66
2023/12/05 08:37:39;;;;;;;0.00;0.00;;;5.60;99.90;;;;;;5113314;28;20578;-67
2023/12/05 08:40:06;;;;;;;0.00;0.00;;;5.60;99.90;;;;;;5099603;28;20262;-66
2023/12/05 08:42:31;;;;;;;0.00;0.00;;;5.60;99.90;;;;;;5093107;28;20225;-67
2023/12/05 08:44:57;;;;;;;0.00;0.00;;;5.70;99.90;;;;;;5093181;28;20184;-66
2023/12/05 08:47:22;;;;;;;0.00;0.00;;;5.70;99.90;;;;;;5092919;28;20181;-66
2023/12/05 08:49:48;;;;;;;0.00;0.00;;;5.70;99.90;;;;;;5092796;28;20289;-66
2023/12/05 08:52:13;;;;;;;0.00;0.00;;;5.70;99.90;;;;;;5093592;28;20644;-67
2023/12/05 08:54:39;;;;;;;0.00;0.00;;;5.80;99.90;;;;;;5097387;28;20180;-66
2023/12/05 08:57:04;;;;;;;0.00;0.00;;;5.80;99.90;;;;;;5092338;28;20187;-66
2023/12/05 08:59:30;;;;;;;0.00;0.00;;;5.90;99.90;;;;;;5104435;28;20541;-66
2023/12/05 09:01:55;;;;;;;0.00;0.00;;;6.00;99.90;;;;;;5098358;28;20662;-67
2023/12/05 09:04:21;;;;;;;0.00;0.00;;;6.10;99.90;;;;;;5095206;28;20180;-67
2023/12/05 09:06:46;;;;;;;0.00;0.00;;;6.30;99.90;;;;;;5100346;28;20253;-67
2023/12/05 09:09:12;;;;;;;0.00;0.00;;;6.40;99.90;;;;;;5106106;28;20184;-64
2023/12/05 09:11:38;;;;;;;0.00;0.00;;;6.60;99.90;;;;;;5104471;28;20532;-64
2023/12/05 09:14:05;;;;;;;0.00;0.00;;;6.70;99.90;;;;;;5092346;28;20390;-66
2023/12/05 09:16:31;;;;;;;0.00;0.00;;;7.00;99.90;;;;;;5092419;28;20178;-65
2023/12/05 09:18:57;;;;;;;0.00;0.00;;;7.30;99.90;;;;;;5092111;28;20263;-64
2023/12/05 09:21:22;;;;;;;0.00;0.00;;;7.70;99.90;;;;;;5092535;28;20176;-63
2023/12/05 09:23:48;;;;;;;0.00;0.00;;;8.00;99.90;;;;;;5092237;28;20176;-63
2023/12/05 09:26:15;;;;;;;0.00;0.00;;;8.20;99.90;;;;;;5092309;28;20180;-64
2023/12/05 09:28:40;;;;;;;0.00;0.00;;;8.40;99.90;;;;;;5091667;28;20614;-65
2023/12/05 09:31:06;;;;;;;0.00;0.00;;;8.50;99.90;;;;;;5092748;28;20215;-64
2023/12/05 09:33:32;;;;;;;0.00;0.00;;;8.70;99.90;;;;;;5092122;28;20168;-65
2023/12/05 09:35:57;;;;;;;0.00;0.00;;;8.70;99.90;;;;;;5095572;28;20232;-66
2023/12/05 09:38:23;;;;;;;0.00;0.00;;;8.70;99.90;;;;;;5112451;28;20706;-65
2023/12/05 09:40:51;;;;;;;0.00;0.00;;;8.60;99.90;;;;;;5104198;28;20180;-66
2023/12/05 09:43:23;;;;;;;0.03;0.03;;;8.80;99.90;;;;;;5101590;28;20755;-66
2023/12/05 09:45:58;;;;;;;0.00;0.00;;;8.80;99.90;;;;;;5097877;28;20176;-66
2023/12/05 09:48:40;;;;;;;0.00;0.00;;;8.90;99.90;;;;;;5108594;28;20175;-65
2023/12/05 09:51:06;;;;;;;0.03;0.03;;;9.00;99.90;;;;;;5099591;28;20267;-64
2023/12/05 09:53:32;;;;;;;0.00;0.00;;;9.00;99.90;;;;;;5100295;28;20184;-64
2023/12/05 09:55:58;;;;;;;0.00;0.00;;;9.00;99.90;;;;;;5092893;28;20211;-65
2023/12/05 09:58:25;;;;;;;0.00;0.00;;;9.10;99.90;;;;;;5108265;28;20183;-65
2023/12/05 10:00:52;;;;;;;0.00;0.00;;;9.30;99.90;;;;;;5097200;28;20240;-65
2023/12/05 10:03:19;;;;;;;0.00;0.00;;;9.50;99.90;;;;;;5102046;28;20176;-66
2023/12/05 10:05:47;;;;;;;0.00;0.00;;;9.70;99.90;;;;;;5092637;28;20195;-65
2023/12/05 10:08:14;;;;;;;0.00;0.00;;;9.80;99.90;;;;;;5102193;28;20244;-65
2023/12/05 10:10:42;;;;;;;0.00;0.00;;;10.00;99.90;;;;;;5091991;28;20215;-65
2023/12/05 10:13:09;;;;;;;0.00;0.00;;;10.00;99.90;;;;;;5099027;28;20549;-64
2023/12/05 10:15:34;;;;;;;0.00;0.00;;;10.20;99.90;;;;;;5100299;28;20184;-65
2023/12/05 10:18:01;;;;;;;0.00;0.00;;;10.20;99.90;;;;;;5104673;28;20186;-65
2023/12/05 10:20:26;;;;;;;0.00;0.00;;;10.20;99.90;;;;;;5099807;28;20630;-64
2023/12/05 10:22:52;;;;;;;0.00;0.00;;;10.30;99.90;;;;;;5109298;28;20182;-65
2023/12/05 10:25:18;;;;;;;0.00;0.00;;;10.30;99.90;;;;;;5095275;28;20184;-64
2023/12/05 10:27:44;;;;;;;0.00;0.00;;;10.20;99.90;;;;;;5110186;28;20172;-65
2023/12/05 10:30:09;;;;;;;0.00;0.00;;;10.10;99.90;;;;;;5107600;28;20196;-65
2023/12/05 10:32:37;;;;;;;0.00;0.00;;;10.00;99.90;;;;;;5090184;28;20184;-64
2023/12/05 10:35:03;;;;;;;0.00;0.00;;;9.90;99.90;;;;;;5091228;28;20188;-65
2023/12/05 10:37:29;;;;;;;0.00;0.00;;;9.80;99.90;;;;;;5091384;28;20231;-65
2023/12/05 10:39:56;;;;;;;0.00;0.00;;;9.70;99.90;;;;;;5091477;28;20176;-65
2023/12/05 10:42:28;;;;;;;0.00;0.00;;;9.60;99.90;;;;;;5091289;28;20594;-65
2023/12/05 10:44:55;;;;;;;0.00;0.00;;;9.60;99.90;;;;;;5091374;28;20172;-65
2023/12/05 10:47:20;;;;;;;0.00;0.00;;;9.70;99.90;;;;;;5091150;28;20184;-64
2023/12/05 10:49:48;;;;;;;0.00;0.00;;;9.70;99.90;;;;;;5091254;28;20276;-64
2023/12/05 10:52:15;;;;;;;0.00;0.00;;;9.70;99.90;;;;;;5091253;28;20612;-65
2023/12/05 10:54:42;;;;;;;0.00;0.00;;;9.70;99.90;;;;;;5091183;28;20195;-64
2023/12/05 10:57:10;;;;;;;0.00;0.00;;;9.60;99.90;;;;;;5091088;28;20238;-64
2023/12/05 10:59:38;;;;;;;0.00;0.00;;;9.40;99.90;;;;;;5091147;28;20179;-64
2023/12/05 11:02:14;;;;;;;0.00;0.00;;;9.30;99.90;;;;;;5091088;28;20186;-65
2023/12/05 11:04:41;;;;;;;0.00;0.00;;;9.20;99.90;;;;;;5091117;28;20176;-64
2023/12/05 11:07:08;;;;;;;0.00;0.00;;;9.10;99.90;;;;;;5091160;28;20186;-64
2023/12/05 11:09:34;;;;;;;0.00;0.00;;;9.10;99.90;;;;;;5091047;28;20724;-64
2023/12/05 11:12:04;;;;;;;0.00;0.00;;;9.00;99.90;;;;;;5089694;28;20180;-65
2023/12/05 11:14:33;;;;;;;0.00;0.00;;;9.00;99.90;;;;;;5091157;28;20179;-65
2023/12/05 11:17:01;;;;;;;0.00;0.00;;;8.90;99.90;;;;;;5090918;28;20255;-65
2023/12/05 11:19:53;;;;;;;0.00;0.00;;;8.90;99.90;;;;;;5091033;28;20322;-64
2023/12/05 11:22:45;;;;;;;0.00;0.00;;;8.90;99.90;;;;;;5091034;28;20172;-65
2023/12/05 11:25:46;;;;;;;0.00;0.00;;;8.80;99.90;;;;;;5086959;28;20196;-65
2023/12/05 11:28:56;;;;;;;0.00;0.00;;;8.80;99.90;;;;;;5091874;28;20189;-65
2023/12/05 11:31:50;;;;;;;0.00;0.00;;;8.80;99.90;;;;;;5108587;28;20721;-65
2023/12/05 11:34:32;;;;;;;0.00;0.00;;;8.80;99.90;;;;;;5114814;28;20232;-65
2023/12/05 11:37:06;;;;;;;0.00;0.00;;;8.80;99.90;;;;;;5114585;28;20234;-65
2023/12/05 11:39:32;;;;;;;0.00;0.00;;;8.70;99.90;;;;;;5096563;28;20509;-65
2023/12/05 11:42:08;;;;;;;0.00;0.00;;;8.70;99.90;;;;;;5098867;28;20186;-64
2023/12/05 11:44:38;;;;;;;0.00;0.00;;;8.70;99.90;;;;;;5104329;28;20597;-64
2023/12/05 11:47:26;;;;;;;0.00;0.00;;;8.70;99.90;;;;;;5098564;28;20172;-65
2023/12/05 11:49:55;;;;;;;0.00;0.00;;;8.70;99.90;;;;;;5099557;28;20215;-65
2023/12/05 11:52:26;;;;;;;0.00;0.00;;;8.70;99.90;;;;;;5104739;28;20175;-65
2023/12/05 11:54:53;;;;;;;0.00;0.00;;;8.80;99.90;;;;;;5097401;28;20181;-64
2023/12/05 11:57:21;;;;;;;0.00;0.00;;;8.80;99.90;;;;;;5110225;28;20241;-64
2023/12/05 11:59:50;;;;;;;0.00;0.00;;;8.80;99.90;;;;;;5098592;28;20171;-64
2023/12/05 12:02:35;;;;;;;0.00;0.00;;;8.80;99.90;;;;;;5105275;28;20188;-66
2023/12/05 12:05:03;;;;;;;0.00;0.00;;;8.90;99.90;;;;;;5108669;28;20187;-65
2023/12/05 12:07:29;;;;;;;0.00;0.00;;;9.00;99.90;;;;;;5098929;28;20207;-65
2023/12/05 12:09:55;;;;;;;0.00;0.00;;;9.10;99.90;;;;;;5093533;28;20207;-65
2023/12/05 12:12:20;;;;;;;0.00;0.00;;;9.10;99.90;;;;;;5093315;28;20176;-64
2023/12/05 12:14:47;;;;;;;0.00;0.00;;;9.10;99.90;;;;;;5102751;28;20211;-65
2023/12/05 12:17:13;;;;;;;0.00;0.00;;;9.00;99.90;;;;;;5097718;28;20269;-64
2023/12/05 12:19:39;;;;;;;0.00;0.00;;;8.90;99.90;;;;;;5107947;28;20179;-64
2023/12/05 12:22:09;;;;;;;0.00;0.00;;;8.80;99.90;;;;;;5099460;28;20228;-64
2023/12/05 12:24:36;;;;;;;0.00;0.00;;;8.60;99.90;;;;;;5103200;28;20631;-64
2023/12/05 12:27:03;;;;;;;0.00;0.00;;;8.60;99.90;;;;;;5094481;28;20180;-64
2023/12/05 12:29:28;;;;;;;0.00;0.00;;;8.50;99.90;;;;;;5109942;28;20392;-64
2023/12/05 12:32:14;;;;;;;0.00;0.00;;;8.50;99.90;;;;;;5098678;28;20681;-64
2023/12/05 12:34:42;;;;;;;0.00;0.00;;;8.40;99.90;;;;;;5102059;28;20207;-64
2023/12/05 12:37:11;;;;;;;0.00;0.00;;;8.40;99.90;;;;;;5107796;28;20313;-63
2023/12/05 12:39:37;;;;;;;0.00;0.00;;;8.40;99.90;;;;;;5094321;28;20188;-63
2023/12/05 12:42:07;;;;;;;0.00;0.00;;;8.50;99.90;;;;;;5104489;28;20529;-64
2023/12/05 12:44:32;;;;;;;0.00;0.00;;;8.60;99.90;;;;;;5103538;28;20184;-64
2023/12/05 12:46:58;;;;;;;0.10;0.10;;;8.60;99.90;;;;;;5106253;28;20539;-64
2023/12/05 12:49:25;;;;;;;0.00;0.00;;;8.60;99.90;;;;;;5096123;28;20644;-64
2023/12/05 12:51:52;;;;;;;0.00;0.00;;;8.70;99.90;;;;;;5096698;28;20175;-64
2023/12/05 12:54:18;;;;;;;0.00;0.00;;;8.70;99.90;;;;;;5105104;28;20544;-64
2023/12/05 12:56:43;;;;;;;0.00;0.00;;;8.60;99.90;;;;;;5103850;28;20184;-64